sensor_id;sensor_type;location;lat;lon;timestamp;P1;durP1;ratioP1;P2;durP2;ratioP2
22476;SDS011;65006;51.698;-0.292;2023-05-10T00:00:33;8.27;;;2.13;;
22476;SDS011;65006;51.698;-0.292;2023-05-10T00:02:59;5.10;;;1.95;;
22476;SDS011;65006;51.698;-0.292;2023-05-10T00:05:25;4.10;;;1.92;;
22476;SDS011;65006;51.698;-0.292;2023-05-10T00:07:51;4.68;;;1.70;;
22476;SDS011;65006;51.698;-0.292;2023-05-10T00:10:17;5.65;;;1.90;;
22476;SDS011;65006;51.698;-0.292;2023-05-10T00:12:43;5.97;;;2.30;;
22476;SDS011;65006;51.698;-0.292;2023-05-10T00:15:09;3.13;;;1.55;;
22476;SDS011;65006;51.698;-0.292;2023-05-10T00:17:35;4.78;;;2.13;;
22476;SDS011;65006;51.698;-0.292;2023-05-10T00:20:01;5.82;;;2.15;;
22476;SDS011;65006;51.698;-0.292;2023-05-10T00:22:29;3.92;;;2.00;;
22476;SDS011;65006;51.698;-0.292;2023-05-10T00:27:22;3.85;;;1.80;;
22476;SDS011;65006;51.698;-0.292;2023-05-10T00:29:48;3.50;;;2.10;;
22476;SDS011;65006;51.698;-0.292;2023-05-10T00:32:14;7.85;;;1.90;;
22476;SDS011;65006;51.698;-0.292;2023-05-10T00:34:40;5.93;;;1.90;;
22476;SDS011;65006;51.698;-0.292;2023-05-10T00:37:06;6.47;;;2.40;;
22476;SDS011;65006;51.698;-0.292;2023-05-10T00:39:32;10.93;;;2.25;;
22476;SDS011;65006;51.698;-0.292;2023-05-10T00:41:58;7.45;;;2.25;;
22476;SDS011;65006;51.698;-0.292;2023-05-10T00:44:25;3.38;;;2.22;;
22476;SDS011;65006;51.698;-0.292;2023-05-10T00:46:51;6.75;;;2.80;;
22476;SDS011;65006;51.698;-0.292;2023-05-10T00:49:17;7.85;;;2.25;;
22476;SDS011;65006;51.698;-0.292;2023-05-10T00:51:43;2.35;;;1.85;;
22476;SDS011;65006;51.698;-0.292;2023-05-10T00:54:11;4.38;;;2.13;;
22476;SDS011;65006;51.698;-0.292;2023-05-10T00:56:37;8.43;;;2.33;;
22476;SDS011;65006;51.698;-0.292;2023-05-10T00:59:03;6.72;;;1.98;;
22476;SDS011;65006;51.698;-0.292;2023-05-10T01:01:29;8.45;;;2.20;;
22476;SDS011;65006;51.698;-0.292;2023-05-10T01:06:22;2.35;;;1.90;;
22476;SDS011;65006;51.698;-0.292;2023-05-10T01:08:48;8.75;;;2.30;;
22476;SDS011;65006;51.698;-0.292;2023-05-10T01:11:14;4.72;;;2.63;;
22476;SDS011;65006;51.698;-0.292;2023-05-10T01:13:41;6.53;;;2.38;;
22476;SDS011;65006;51.698;-0.292;2023-05-10T01:16:07;4.38;;;2.30;;
22476;SDS011;65006;51.698;-0.292;2023-05-10T01:18:35;4.65;;;2.40;;
22476;SDS011;65006;51.698;-0.292;2023-05-10T01:21:12;5.00;;;2.08;;
22476;SDS011;65006;51.698;-0.292;2023-05-10T01:26:13;9.18;;;2.88;;
22476;SDS011;65006;51.698;-0.292;2023-05-10T01:28:57;5.05;;;2.50;;
22476;SDS011;65006;51.698;-0.292;2023-05-10T01:36:54;8.68;;;2.58;;
22476;SDS011;65006;51.698;-0.292;2023-05-10T01:42:09;6.47;;;2.90;;
22476;SDS011;65006;51.698;-0.292;2023-05-10T01:44:40;5.95;;;2.80;;
22476;SDS011;65006;51.698;-0.292;2023-05-10T01:47:09;6.93;;;3.03;;
22476;SDS011;65006;51.698;-0.292;2023-05-10T01:49:47;9.73;;;3.00;;
22476;SDS011;65006;51.698;-0.292;2023-05-10T01:52:14;9.98;;;2.67;;
22476;SDS011;65006;51.698;-0.292;2023-05-10T01:54:42;13.48;;;2.88;;
22476;SDS011;65006;51.698;-0.292;2023-05-10T01:57:09;4.78;;;2.47;;
22476;SDS011;65006;51.698;-0.292;2023-05-10T01:59:38;6.90;;;2.47;;
22476;SDS011;65006;51.698;-0.292;2023-05-10T02:02:06;6.70;;;3.00;;
22476;SDS011;65006;51.698;-0.292;2023-05-10T02:04:33;5.97;;;2.58;;
22476;SDS011;65006;51.698;-0.292;2023-05-10T02:07:00;8.15;;;3.30;;
22476;SDS011;65006;51.698;-0.292;2023-05-10T02:09:27;6.93;;;2.88;;
22476;SDS011;65006;51.698;-0.292;2023-05-10T02:11:54;7.72;;;3.20;;
22476;SDS011;65006;51.698;-0.292;2023-05-10T02:14:21;10.70;;;3.10;;
22476;SDS011;65006;51.698;-0.292;2023-05-10T02:16:49;10.25;;;2.88;;
22476;SDS011;65006;51.698;-0.292;2023-05-10T02:19:16;7.80;;;3.10;;
22476;SDS011;65006;51.698;-0.292;2023-05-10T02:21:43;8.27;;;3.13;;
22476;SDS011;65006;51.698;-0.292;2023-05-10T02:24:10;5.95;;;3.05;;
22476;SDS011;65006;51.698;-0.292;2023-05-10T02:26:36;8.82;;;3.20;;
22476;SDS011;65006;51.698;-0.292;2023-05-10T02:29:03;7.30;;;3.38;;
22476;SDS011;65006;51.698;-0.292;2023-05-10T02:31:32;9.68;;;3.25;;
22476;SDS011;65006;51.698;-0.292;2023-05-10T02:33:59;12.15;;;3.33;;
22476;SDS011;65006;51.698;-0.292;2023-05-10T02:38:52;17.47;;;3.77;;
22476;SDS011;65006;51.698;-0.292;2023-05-10T02:41:19;8.43;;;3.97;;
22476;SDS011;65006;51.698;-0.292;2023-05-10T02:43:47;10.02;;;3.90;;
22476;SDS011;65006;51.698;-0.292;2023-05-10T02:46:15;9.35;;;3.60;;
22476;SDS011;65006;51.698;-0.292;2023-05-10T02:48:41;11.98;;;3.33;;
22476;SDS011;65006;51.698;-0.292;2023-05-10T02:51:07;14.55;;;3.63;;
22476;SDS011;65006;51.698;-0.292;2023-05-10T02:53:34;6.70;;;3.20;;
22476;SDS011;65006;51.698;-0.292;2023-05-10T02:56:04;12.02;;;3.47;;
22476;SDS011;65006;51.698;-0.292;2023-05-10T02:58:32;7.38;;;3.90;;
22476;SDS011;65006;51.698;-0.292;2023-05-10T03:00:58;8.23;;;3.25;;
22476;SDS011;65006;51.698;-0.292;2023-05-10T03:03:25;7.60;;;3.75;;
22476;SDS011;65006;51.698;-0.292;2023-05-10T03:05:51;10.30;;;4.07;;
22476;SDS011;65006;51.698;-0.292;2023-05-10T03:08:20;7.63;;;3.38;;
22476;SDS011;65006;51.698;-0.292;2023-05-10T03:16:09;11.80;;;3.10;;
22476;SDS011;65006;51.698;-0.292;2023-05-10T03:18:56;13.02;;;4.43;;
22476;SDS011;65006;51.698;-0.292;2023-05-10T03:21:28;15.95;;;3.65;;
22476;SDS011;65006;51.698;-0.292;2023-05-10T03:23:59;9.27;;;3.17;;
22476;SDS011;65006;51.698;-0.292;2023-05-10T03:26:26;6.13;;;2.83;;
22476;SDS011;65006;51.698;-0.292;2023-05-10T03:28:52;7.88;;;3.50;;
22476;SDS011;65006;51.698;-0.292;2023-05-10T03:33:48;6.03;;;2.95;;
22476;SDS011;65006;51.698;-0.292;2023-05-10T03:36:14;9.85;;;2.88;;
22476;SDS011;65006;51.698;-0.292;2023-05-10T03:38:40;8.00;;;2.70;;
22476;SDS011;65006;51.698;-0.292;2023-05-10T03:41:06;5.75;;;3.08;;
22476;SDS011;65006;51.698;-0.292;2023-05-10T03:43:33;8.60;;;2.90;;
22476;SDS011;65006;51.698;-0.292;2023-05-10T03:46:01;6.00;;;3.00;;
22476;SDS011;65006;51.698;-0.292;2023-05-10T03:48:27;7.47;;;2.55;;
22476;SDS011;65006;51.698;-0.292;2023-05-10T03:50:53;12.23;;;2.92;;
22476;SDS011;65006;51.698;-0.292;2023-05-10T03:53:19;5.65;;;2.63;;
22476;SDS011;65006;51.698;-0.292;2023-05-10T03:55:45;7.82;;;3.53;;
22476;SDS011;65006;51.698;-0.292;2023-05-10T03:58:11;8.15;;;2.65;;
22476;SDS011;65006;51.698;-0.292;2023-05-10T04:00:37;7.80;;;3.22;;
22476;SDS011;65006;51.698;-0.292;2023-05-10T04:03:08;12.52;;;2.60;;
22476;SDS011;65006;51.698;-0.292;2023-05-10T04:05:34;4.47;;;2.55;;
22476;SDS011;65006;51.698;-0.292;2023-05-10T04:08:01;7.78;;;2.72;;
22476;SDS011;65006;51.698;-0.292;2023-05-10T04:10:27;6.55;;;2.50;;
22476;SDS011;65006;51.698;-0.292;2023-05-10T04:12:53;8.57;;;2.45;;
22476;SDS011;65006;51.698;-0.292;2023-05-10T04:15:19;9.82;;;2.95;;
22476;SDS011;65006;51.698;-0.292;2023-05-10T04:17:45;9.48;;;2.53;;
22476;SDS011;65006;51.698;-0.292;2023-05-10T04:20:11;9.27;;;2.80;;
22476;SDS011;65006;51.698;-0.292;2023-05-10T04:22:37;7.53;;;2.45;;
22476;SDS011;65006;51.698;-0.292;2023-05-10T04:25:03;13.70;;;2.88;;
22476;SDS011;65006;51.698;-0.292;2023-05-10T04:27:30;12.32;;;2.90;;
22476;SDS011;65006;51.698;-0.292;2023-05-10T04:29:56;5.80;;;2.35;;
22476;SDS011;65006;51.698;-0.292;2023-05-10T04:32:22;8.82;;;2.72;;
22476;SDS011;65006;51.698;-0.292;2023-05-10T04:34:48;8.05;;;2.35;;
22476;SDS011;65006;51.698;-0.292;2023-05-10T04:37:16;8.70;;;2.83;;
22476;SDS011;65006;51.698;-0.292;2023-05-10T04:39:42;8.57;;;2.75;;
22476;SDS011;65006;51.698;-0.292;2023-05-10T04:42:08;19.58;;;2.83;;
22476;SDS011;65006;51.698;-0.292;2023-05-10T04:44:34;9.05;;;3.03;;
22476;SDS011;65006;51.698;-0.292;2023-05-10T04:49:28;10.57;;;3.08;;
22476;SDS011;65006;51.698;-0.292;2023-05-10T04:54:29;10.10;;;3.13;;
22476;SDS011;65006;51.698;-0.292;2023-05-10T04:56:55;6.35;;;2.22;;
22476;SDS011;65006;51.698;-0.292;2023-05-10T04:59:21;5.88;;;2.38;;
22476;SDS011;65006;51.698;-0.292;2023-05-10T05:01:47;5.78;;;2.67;;
22476;SDS011;65006;51.698;-0.292;2023-05-10T05:04:13;12.88;;;3.20;;
22476;SDS011;65006;51.698;-0.292;2023-05-10T05:06:39;11.70;;;2.53;;
22476;SDS011;65006;51.698;-0.292;2023-05-10T05:09:05;10.50;;;2.50;;
22476;SDS011;65006;51.698;-0.292;2023-05-10T05:11:31;6.70;;;2.40;;
22476;SDS011;65006;51.698;-0.292;2023-05-10T05:13:57;8.50;;;2.25;;
22476;SDS011;65006;51.698;-0.292;2023-05-10T05:16:24;6.43;;;2.30;;
22476;SDS011;65006;51.698;-0.292;2023-05-10T05:18:50;8.30;;;2.10;;
22476;SDS011;65006;51.698;-0.292;2023-05-10T05:21:17;6.50;;;1.88;;
22476;SDS011;65006;51.698;-0.292;2023-05-10T05:23:43;4.97;;;2.13;;
22476;SDS011;65006;51.698;-0.292;2023-05-10T05:26:10;5.25;;;2.03;;
22476;SDS011;65006;51.698;-0.292;2023-05-10T05:28:37;10.05;;;3.00;;
22476;SDS011;65006;51.698;-0.292;2023-05-10T05:31:06;9.70;;;2.25;;
22476;SDS011;65006;51.698;-0.292;2023-05-10T05:33:32;12.30;;;2.53;;
22476;SDS011;65006;51.698;-0.292;2023-05-10T05:36:02;4.55;;;2.30;;
22476;SDS011;65006;51.698;-0.292;2023-05-10T05:38:28;14.60;;;3.20;;
22476;SDS011;65006;51.698;-0.292;2023-05-10T05:40:55;7.38;;;2.35;;
22476;SDS011;65006;51.698;-0.292;2023-05-10T05:43:21;6.32;;;2.95;;
22476;SDS011;65006;51.698;-0.292;2023-05-10T05:45:47;10.00;;;2.80;;
22476;SDS011;65006;51.698;-0.292;2023-05-10T05:48:13;8.60;;;2.63;;
22476;SDS011;65006;51.698;-0.292;2023-05-10T05:50:39;8.98;;;2.70;;
22476;SDS011;65006;51.698;-0.292;2023-05-10T05:53:05;10.43;;;2.83;;
22476;SDS011;65006;51.698;-0.292;2023-05-10T05:55:31;8.85;;;2.88;;
22476;SDS011;65006;51.698;-0.292;2023-05-10T05:57:57;8.23;;;2.78;;
22476;SDS011;65006;51.698;-0.292;2023-05-10T06:00:23;5.18;;;2.67;;
22476;SDS011;65006;51.698;-0.292;2023-05-10T06:02:51;9.00;;;2.97;;
22476;SDS011;65006;51.698;-0.292;2023-05-10T06:05:17;4.78;;;2.40;;
22476;SDS011;65006;51.698;-0.292;2023-05-10T06:07:45;7.75;;;2.63;;
22476;SDS011;65006;51.698;-0.292;2023-05-10T06:10:11;9.00;;;2.47;;
22476;SDS011;65006;51.698;-0.292;2023-05-10T06:12:37;9.63;;;2.38;;
22476;SDS011;65006;51.698;-0.292;2023-05-10T06:15:03;8.25;;;2.42;;
22476;SDS011;65006;51.698;-0.292;2023-05-10T06:17:30;4.35;;;2.25;;
22476;SDS011;65006;51.698;-0.292;2023-05-10T06:19:56;8.35;;;2.10;;
22476;SDS011;65006;51.698;-0.292;2023-05-10T06:22:22;13.82;;;2.70;;
22476;SDS011;65006;51.698;-0.292;2023-05-10T06:24:48;5.28;;;2.40;;
22476;SDS011;65006;51.698;-0.292;2023-05-10T06:29:40;4.63;;;2.05;;
22476;SDS011;65006;51.698;-0.292;2023-05-10T06:32:06;2.83;;;1.80;;
22476;SDS011;65006;51.698;-0.292;2023-05-10T06:34:32;5.30;;;1.80;;
22476;SDS011;65006;51.698;-0.292;2023-05-10T06:36:59;6.53;;;2.10;;
22476;SDS011;65006;51.698;-0.292;2023-05-10T06:39:25;5.25;;;1.85;;
22476;SDS011;65006;51.698;-0.292;2023-05-10T06:41:51;2.60;;;1.38;;
22476;SDS011;65006;51.698;-0.292;2023-05-10T06:44:17;4.03;;;1.38;;
22476;SDS011;65006;51.698;-0.292;2023-05-10T06:46:43;9.38;;;1.48;;
22476;SDS011;65006;51.698;-0.292;2023-05-10T06:49:09;6.00;;;1.88;;
22476;SDS011;65006;51.698;-0.292;2023-05-10T06:51:35;4.22;;;1.60;;
22476;SDS011;65006;51.698;-0.292;2023-05-10T06:54:01;3.85;;;1.45;;
22476;SDS011;65006;51.698;-0.292;2023-05-10T06:58:53;8.38;;;1.90;;
22476;SDS011;65006;51.698;-0.292;2023-05-10T07:01:20;5.07;;;1.88;;
22476;SDS011;65006;51.698;-0.292;2023-05-10T07:03:46;6.28;;;1.90;;
22476;SDS011;65006;51.698;-0.292;2023-05-10T07:06:12;5.30;;;1.33;;
22476;SDS011;65006;51.698;-0.292;2023-05-10T07:08:38;5.93;;;1.40;;
22476;SDS011;65006;51.698;-0.292;2023-05-10T07:11:05;3.95;;;1.15;;
22476;SDS011;65006;51.698;-0.292;2023-05-10T07:13:35;10.88;;;1.60;;
22476;SDS011;65006;51.698;-0.292;2023-05-10T07:16:01;7.68;;;1.60;;
22476;SDS011;65006;51.698;-0.292;2023-05-10T07:18:28;2.97;;;0.88;;
22476;SDS011;65006;51.698;-0.292;2023-05-10T07:20:54;5.82;;;1.35;;
22476;SDS011;65006;51.698;-0.292;2023-05-10T07:23:20;5.10;;;1.30;;
22476;SDS011;65006;51.698;-0.292;2023-05-10T07:25:49;3.65;;;1.25;;
22476;SDS011;65006;51.698;-0.292;2023-05-10T07:28:17;7.90;;;1.30;;
22476;SDS011;65006;51.698;-0.292;2023-05-10T07:33:10;4.95;;;1.13;;
22476;SDS011;65006;51.698;-0.292;2023-05-10T07:35:36;4.75;;;1.48;;
22476;SDS011;65006;51.698;-0.292;2023-05-10T07:38:02;6.88;;;1.42;;
22476;SDS011;65006;51.698;-0.292;2023-05-10T07:40:28;5.22;;;1.42;;
22476;SDS011;65006;51.698;-0.292;2023-05-10T07:42:55;5.57;;;1.10;;
22476;SDS011;65006;51.698;-0.292;2023-05-10T07:45:21;5.68;;;1.25;;
22476;SDS011;65006;51.698;-0.292;2023-05-10T07:47:47;7.38;;;1.40;;
22476;SDS011;65006;51.698;-0.292;2023-05-10T07:50:13;7.60;;;1.70;;
22476;SDS011;65006;51.698;-0.292;2023-05-10T07:55:06;5.63;;;1.60;;
22476;SDS011;65006;51.698;-0.292;2023-05-10T07:57:33;9.20;;;1.30;;
22476;SDS011;65006;51.698;-0.292;2023-05-10T08:02:25;3.45;;;1.02;;
22476;SDS011;65006;51.698;-0.292;2023-05-10T08:04:51;6.82;;;1.33;;
22476;SDS011;65006;51.698;-0.292;2023-05-10T08:07:17;6.22;;;1.02;;
22476;SDS011;65006;51.698;-0.292;2023-05-10T08:09:43;3.50;;;1.17;;
22476;SDS011;65006;51.698;-0.292;2023-05-10T08:12:09;4.65;;;1.13;;
22476;SDS011;65006;51.698;-0.292;2023-05-10T08:14:35;11.75;;;1.60;;
22476;SDS011;65006;51.698;-0.292;2023-05-10T08:17:02;6.97;;;1.00;;
22476;SDS011;65006;51.698;-0.292;2023-05-10T08:19:29;7.32;;;1.33;;
22476;SDS011;65006;51.698;-0.292;2023-05-10T08:21:55;3.65;;;1.13;;
22476;SDS011;65006;51.698;-0.292;2023-05-10T08:26:48;4.35;;;1.33;;
22476;SDS011;65006;51.698;-0.292;2023-05-10T08:29:14;5.25;;;1.00;;
22476;SDS011;65006;51.698;-0.292;2023-05-10T08:31:40;2.03;;;0.85;;
22476;SDS011;65006;51.698;-0.292;2023-05-10T08:34:06;4.13;;;0.90;;
22476;SDS011;65006;51.698;-0.292;2023-05-10T08:36:32;6.72;;;1.10;;
22476;SDS011;65006;51.698;-0.292;2023-05-10T08:38:58;7.30;;;1.08;;
22476;SDS011;65006;51.698;-0.292;2023-05-10T08:41:25;3.63;;;1.08;;
22476;SDS011;65006;51.698;-0.292;2023-05-10T08:43:52;2.92;;;0.88;;
22476;SDS011;65006;51.698;-0.292;2023-05-10T08:48:44;3.67;;;0.88;;
22476;SDS011;65006;51.698;-0.292;2023-05-10T08:51:13;2.35;;;0.88;;
22476;SDS011;65006;51.698;-0.292;2023-05-10T08:53:39;3.83;;;1.10;;
22476;SDS011;65006;51.698;-0.292;2023-05-10T08:56:05;3.33;;;0.77;;
22476;SDS011;65006;51.698;-0.292;2023-05-10T08:58:31;4.63;;;1.23;;
22476;SDS011;65006;51.698;-0.292;2023-05-10T09:00:58;2.85;;;0.70;;
22476;SDS011;65006;51.698;-0.292;2023-05-10T09:03:25;4.68;;;0.90;;
22476;SDS011;65006;51.698;-0.292;2023-05-10T09:05:51;4.05;;;0.70;;
22476;SDS011;65006;51.698;-0.292;2023-05-10T09:08:17;5.97;;;0.80;;
22476;SDS011;65006;51.698;-0.292;2023-05-10T09:13:12;2.35;;;0.90;;
22476;SDS011;65006;51.698;-0.292;2023-05-10T09:18:04;3.75;;;1.08;;
22476;SDS011;65006;51.698;-0.292;2023-05-10T09:20:30;3.83;;;1.42;;
22476;SDS011;65006;51.698;-0.292;2023-05-10T09:22:56;3.30;;;1.10;;
22476;SDS011;65006;51.698;-0.292;2023-05-10T09:25:22;2.83;;;1.00;;
22476;SDS011;65006;51.698;-0.292;2023-05-10T09:27:49;4.65;;;1.13;;
22476;SDS011;65006;51.698;-0.292;2023-05-10T09:30:25;6.05;;;1.30;;
22476;SDS011;65006;51.698;-0.292;2023-05-10T09:32:51;5.25;;;1.10;;
22476;SDS011;65006;51.698;-0.292;2023-05-10T09:35:18;3.67;;;1.30;;
22476;SDS011;65006;51.698;-0.292;2023-05-10T09:37:46;4.80;;;1.15;;
22476;SDS011;65006;51.698;-0.292;2023-05-10T09:40:16;2.65;;;1.10;;
22476;SDS011;65006;51.698;-0.292;2023-05-10T09:42:43;4.47;;;1.10;;
22476;SDS011;65006;51.698;-0.292;2023-05-10T09:45:16;7.13;;;1.10;;
22476;SDS011;65006;51.698;-0.292;2023-05-10T09:47:42;3.90;;;1.10;;
22476;SDS011;65006;51.698;-0.292;2023-05-10T09:50:09;5.38;;;1.45;;
22476;SDS011;65006;51.698;-0.292;2023-05-10T09:52:54;6.00;;;1.00;;
22476;SDS011;65006;51.698;-0.292;2023-05-10T09:55:23;3.63;;;1.63;;
22476;SDS011;65006;51.698;-0.292;2023-05-10T09:57:49;6.13;;;1.25;;
22476;SDS011;65006;51.698;-0.292;2023-05-10T10:00:23;4.57;;;1.52;;
22476;SDS011;65006;51.698;-0.292;2023-05-10T10:02:56;4.25;;;0.90;;
22476;SDS011;65006;51.698;-0.292;2023-05-10T10:05:44;3.85;;;1.33;;
22476;SDS011;65006;51.698;-0.292;2023-05-10T10:08:09;3.30;;;0.85;;
22476;SDS011;65006;51.698;-0.292;2023-05-10T10:10:35;5.07;;;1.38;;
22476;SDS011;65006;51.698;-0.292;2023-05-10T10:15:27;3.50;;;1.10;;
22476;SDS011;65006;51.698;-0.292;2023-05-10T10:17:53;3.20;;;1.30;;
22476;SDS011;65006;51.698;-0.292;2023-05-10T10:20:20;6.25;;;1.42;;
22476;SDS011;65006;51.698;-0.292;2023-05-10T10:22:47;4.72;;;1.10;;
22476;SDS011;65006;51.698;-0.292;2023-05-10T10:25:17;3.28;;;1.15;;
22476;SDS011;65006;51.698;-0.292;2023-05-10T10:30:36;3.97;;;1.40;;
22476;SDS011;65006;51.698;-0.292;2023-05-10T10:35:49;3.95;;;1.45;;
22476;SDS011;65006;51.698;-0.292;2023-05-10T10:40:42;3.00;;;0.95;;
22476;SDS011;65006;51.698;-0.292;2023-05-10T10:43:24;5.57;;;1.23;;
22476;SDS011;65006;51.698;-0.292;2023-05-10T10:48:37;5.05;;;1.25;;
22476;SDS011;65006;51.698;-0.292;2023-05-10T10:51:03;2.03;;;1.10;;
22476;SDS011;65006;51.698;-0.292;2023-05-10T10:53:29;3.63;;;1.30;;
22476;SDS011;65006;51.698;-0.292;2023-05-10T10:56:05;6.88;;;1.10;;
22476;SDS011;65006;51.698;-0.292;2023-05-10T10:58:35;3.75;;;1.40;;
22476;SDS011;65006;51.698;-0.292;2023-05-10T11:03:37;3.97;;;1.23;;
22476;SDS011;65006;51.698;-0.292;2023-05-10T11:06:03;3.30;;;1.02;;
22476;SDS011;65006;51.698;-0.292;2023-05-10T11:08:30;6.18;;;1.23;;
22476;SDS011;65006;51.698;-0.292;2023-05-10T11:13:29;5.47;;;1.08;;
22476;SDS011;65006;51.698;-0.292;2023-05-10T11:15:56;3.67;;;1.08;;
22476;SDS011;65006;51.698;-0.292;2023-05-10T11:18:26;4.85;;;0.95;;
22476;SDS011;65006;51.698;-0.292;2023-05-10T11:20:57;7.15;;;1.45;;
22476;SDS011;65006;51.698;-0.292;2023-05-10T11:26:14;2.97;;;1.02;;
22476;SDS011;65006;51.698;-0.292;2023-05-10T11:28:47;1.92;;;0.85;;
22476;SDS011;65006;51.698;-0.292;2023-05-10T11:31:17;2.28;;;0.80;;
22476;SDS011;65006;51.698;-0.292;2023-05-10T11:33:46;1.88;;;0.80;;
22476;SDS011;65006;51.698;-0.292;2023-05-10T11:36:55;2.75;;;0.80;;
22476;SDS011;65006;51.698;-0.292;2023-05-10T11:39:02;2.95;;;0.80;;
22476;SDS011;65006;51.698;-0.292;2023-05-10T11:41:29;2.97;;;1.00;;
22476;SDS011;65006;51.698;-0.292;2023-05-10T11:43:55;5.43;;;0.98;;
22476;SDS011;65006;51.698;-0.292;2023-05-10T11:48:57;3.00;;;1.15;;
22476;SDS011;65006;51.698;-0.292;2023-05-10T11:51:26;4.90;;;0.77;;
22476;SDS011;65006;51.698;-0.292;2023-05-10T11:53:54;4.43;;;0.80;;
22476;SDS011;65006;51.698;-0.292;2023-05-10T11:56:20;6.20;;;1.17;;
22476;SDS011;65006;51.698;-0.292;2023-05-10T11:58:51;6.35;;;0.93;;
22476;SDS011;65006;51.698;-0.292;2023-05-10T12:01:18;7.05;;;1.55;;
22476;SDS011;65006;51.698;-0.292;2023-05-10T12:03:45;6.80;;;1.02;;
22476;SDS011;65006;51.698;-0.292;2023-05-10T12:06:11;3.03;;;1.00;;
22476;SDS011;65006;51.698;-0.292;2023-05-10T12:08:43;4.50;;;1.05;;
22476;SDS011;65006;51.698;-0.292;2023-05-10T12:11:10;2.80;;;1.40;;
22476;SDS011;65006;51.698;-0.292;2023-05-10T12:13:39;7.43;;;1.60;;
22476;SDS011;65006;51.698;-0.292;2023-05-10T12:16:19;5.20;;;1.90;;
22476;SDS011;65006;51.698;-0.292;2023-05-10T12:18:48;4.32;;;1.30;;
22476;SDS011;65006;51.698;-0.292;2023-05-10T12:21:14;6.18;;;1.42;;
22476;SDS011;65006;51.698;-0.292;2023-05-10T12:23:40;6.13;;;1.42;;
22476;SDS011;65006;51.698;-0.292;2023-05-10T12:26:10;5.75;;;1.60;;
22476;SDS011;65006;51.698;-0.292;2023-05-10T12:28:36;4.10;;;1.20;;
22476;SDS011;65006;51.698;-0.292;2023-05-10T12:31:03;6.80;;;1.45;;
22476;SDS011;65006;51.698;-0.292;2023-05-10T12:33:39;1.92;;;1.05;;
22476;SDS011;65006;51.698;-0.292;2023-05-10T12:36:13;3.30;;;1.00;;
22476;SDS011;65006;51.698;-0.292;2023-05-10T12:38:40;4.10;;;1.00;;
22476;SDS011;65006;51.698;-0.292;2023-05-10T12:41:12;4.07;;;1.33;;
22476;SDS011;65006;51.698;-0.292;2023-05-10T12:43:39;4.10;;;0.95;;
22476;SDS011;65006;51.698;-0.292;2023-05-10T12:46:06;4.32;;;1.13;;
22476;SDS011;65006;51.698;-0.292;2023-05-10T12:48:32;1.80;;;1.08;;
22476;SDS011;65006;51.698;-0.292;2023-05-10T12:53:25;2.53;;;1.10;;
22476;SDS011;65006;51.698;-0.292;2023-05-10T12:55:51;2.20;;;1.25;;
22476;SDS011;65006;51.698;-0.292;2023-05-10T12:58:17;4.15;;;1.48;;
22476;SDS011;65006;51.698;-0.292;2023-05-10T13:00:43;3.88;;;1.00;;
22476;SDS011;65006;51.698;-0.292;2023-05-10T13:03:09;4.53;;;1.27;;
22476;SDS011;65006;51.698;-0.292;2023-05-10T13:05:36;3.38;;;1.17;;
22476;SDS011;65006;51.698;-0.292;2023-05-10T13:08:02;4.88;;;1.33;;
22476;SDS011;65006;51.698;-0.292;2023-05-10T13:10:29;8.10;;;1.50;;
22476;SDS011;65006;51.698;-0.292;2023-05-10T13:12:55;9.18;;;1.55;;
22476;SDS011;65006;51.698;-0.292;2023-05-10T13:15:22;7.75;;;1.75;;
22476;SDS011;65006;51.698;-0.292;2023-05-10T13:17:48;8.63;;;2.25;;
22476;SDS011;65006;51.698;-0.292;2023-05-10T13:20:14;8.18;;;1.67;;
22476;SDS011;65006;51.698;-0.292;2023-05-10T13:22:41;8.30;;;1.90;;
22476;SDS011;65006;51.698;-0.292;2023-05-10T13:25:07;3.70;;;1.88;;
22476;SDS011;65006;51.698;-0.292;2023-05-10T13:27:33;4.85;;;1.92;;
22476;SDS011;65006;51.698;-0.292;2023-05-10T13:29:59;2.50;;;1.35;;
22476;SDS011;65006;51.698;-0.292;2023-05-10T13:32:25;5.65;;;1.77;;
22476;SDS011;65006;51.698;-0.292;2023-05-10T13:34:51;3.90;;;1.63;;
22476;SDS011;65006;51.698;-0.292;2023-05-10T13:37:17;2.28;;;1.00;;
22476;SDS011;65006;51.698;-0.292;2023-05-10T13:39:44;3.38;;;0.90;;
22476;SDS011;65006;51.698;-0.292;2023-05-10T13:42:10;1.77;;;0.93;;
22476;SDS011;65006;51.698;-0.292;2023-05-10T13:44:35;3.75;;;1.25;;
22476;SDS011;65006;51.698;-0.292;2023-05-10T13:47:03;4.20;;;1.00;;
22476;SDS011;65006;51.698;-0.292;2023-05-10T13:49:29;3.10;;;1.08;;
22476;SDS011;65006;51.698;-0.292;2023-05-10T13:51:56;4.22;;;1.23;;
22476;SDS011;65006;51.698;-0.292;2023-05-10T13:54:22;2.55;;;1.00;;
22476;SDS011;65006;51.698;-0.292;2023-05-10T13:56:49;1.77;;;1.17;;
22476;SDS011;65006;51.698;-0.292;2023-05-10T13:59:16;3.45;;;1.38;;
22476;SDS011;65006;51.698;-0.292;2023-05-10T14:01:42;3.05;;;1.40;;
22476;SDS011;65006;51.698;-0.292;2023-05-10T14:04:08;3.15;;;1.40;;
22476;SDS011;65006;51.698;-0.292;2023-05-10T14:06:35;4.88;;;1.90;;
22476;SDS011;65006;51.698;-0.292;2023-05-10T14:09:04;4.55;;;1.60;;
22476;SDS011;65006;51.698;-0.292;2023-05-10T14:11:30;3.00;;;1.52;;
22476;SDS011;65006;51.698;-0.292;2023-05-10T14:13:57;4.22;;;1.52;;
22476;SDS011;65006;51.698;-0.292;2023-05-10T14:16:23;3.78;;;1.27;;
22476;SDS011;65006;51.698;-0.292;2023-05-10T14:18:49;3.30;;;1.08;;
22476;SDS011;65006;51.698;-0.292;2023-05-10T14:21:15;4.15;;;1.45;;
22476;SDS011;65006;51.698;-0.292;2023-05-10T14:23:41;2.50;;;1.23;;
22476;SDS011;65006;51.698;-0.292;2023-05-10T14:26:07;3.50;;;1.30;;
22476;SDS011;65006;51.698;-0.292;2023-05-10T14:28:33;5.28;;;1.50;;
22476;SDS011;65006;51.698;-0.292;2023-05-10T14:30:59;6.70;;;1.63;;
22476;SDS011;65006;51.698;-0.292;2023-05-10T14:33:26;4.10;;;1.40;;
22476;SDS011;65006;51.698;-0.292;2023-05-10T14:35:53;2.38;;;1.38;;
22476;SDS011;65006;51.698;-0.292;2023-05-10T14:38:21;4.22;;;1.50;;
22476;SDS011;65006;51.698;-0.292;2023-05-10T14:40:47;3.28;;;1.05;;
22476;SDS011;65006;51.698;-0.292;2023-05-10T14:43:13;4.65;;;1.60;;
22476;SDS011;65006;51.698;-0.292;2023-05-10T14:45:39;5.97;;;1.60;;
22476;SDS011;65006;51.698;-0.292;2023-05-10T14:48:06;3.40;;;1.30;;
22476;SDS011;65006;51.698;-0.292;2023-05-10T14:50:36;4.45;;;1.42;;
22476;SDS011;65006;51.698;-0.292;2023-05-10T14:53:02;3.03;;;1.60;;
22476;SDS011;65006;51.698;-0.292;2023-05-10T14:55:28;2.50;;;1.38;;
22476;SDS011;65006;51.698;-0.292;2023-05-10T14:57:54;1.33;;;1.00;;
22476;SDS011;65006;51.698;-0.292;2023-05-10T15:00:20;3.22;;;1.27;;
22476;SDS011;65006;51.698;-0.292;2023-05-10T15:02:46;6.07;;;1.58;;
22476;SDS011;65006;51.698;-0.292;2023-05-10T15:07:39;2.90;;;1.27;;
22476;SDS011;65006;51.698;-0.292;2023-05-10T15:10:05;3.90;;;1.30;;
22476;SDS011;65006;51.698;-0.292;2023-05-10T15:12:31;2.47;;;1.50;;
22476;SDS011;65006;51.698;-0.292;2023-05-10T15:14:57;4.40;;;1.40;;
22476;SDS011;65006;51.698;-0.292;2023-05-10T15:17:24;4.03;;;1.38;;
22476;SDS011;65006;51.698;-0.292;2023-05-10T15:19:50;5.63;;;1.60;;
22476;SDS011;65006;51.698;-0.292;2023-05-10T15:22:16;3.90;;;1.08;;
22476;SDS011;65006;51.698;-0.292;2023-05-10T15:24:44;3.47;;;1.45;;
22476;SDS011;65006;51.698;-0.292;2023-05-10T15:27:10;3.05;;;1.33;;
22476;SDS011;65006;51.698;-0.292;2023-05-10T15:29:36;2.70;;;1.38;;
22476;SDS011;65006;51.698;-0.292;2023-05-10T15:32:02;3.88;;;1.50;;
22476;SDS011;65006;51.698;-0.292;2023-05-10T15:34:28;4.75;;;1.30;;
22476;SDS011;65006;51.698;-0.292;2023-05-10T15:36:54;3.47;;;1.10;;
22476;SDS011;65006;51.698;-0.292;2023-05-10T15:39:20;1.90;;;1.20;;
22476;SDS011;65006;51.698;-0.292;2023-05-10T15:41:46;2.75;;;1.33;;
22476;SDS011;65006;51.698;-0.292;2023-05-10T15:44:12;3.15;;;1.35;;
22476;SDS011;65006;51.698;-0.292;2023-05-10T15:46:38;4.03;;;1.38;;
22476;SDS011;65006;51.698;-0.292;2023-05-10T15:49:04;5.82;;;1.13;;
22476;SDS011;65006;51.698;-0.292;2023-05-10T15:51:31;3.53;;;0.90;;
22476;SDS011;65006;51.698;-0.292;2023-05-10T15:53:57;4.30;;;1.35;;